Time;durP1;ratioP1;P1;durP2;ratioP2;P2;SDS_P1;SDS_P2;PMS_P1;PMS_P2;Temp;Humidity;BMP_temperature;BMP_pressure;BME280_temperature;BME280_humidity;BME280_pressure;Samples;Min_cycle;Max_cycle;Signal;HPM_P1;HPM_P2
2022/06/28 00:01:58;;;;;;;13.02;4.28;;;25.50;99.30;;;;;;5033410;28;20692;-90
2022/06/28 00:04:23;;;;;;;12.07;3.40;;;25.50;99.30;;;;;;5034804;28;20029;-90
2022/06/28 00:06:49;;;;;;;13.52;4.10;;;25.50;99.10;;;;;;5034770;28;20017;-89
2022/06/28 00:09:15;;;;;;;10.88;3.67;;;25.50;99.00;;;;;;5033935;28;20575;-91
2022/06/28 00:11:42;;;;;;;19.05;3.53;;;25.60;98.90;;;;;;5041530;28;20049;-90
2022/06/28 00:16:54;;;;;;;17.92;4.38;;;25.60;99.00;;;;;;5013205;28;20041;-91
2022/06/28 00:19:20;;;;;;;13.15;3.28;;;25.70;99.00;;;;;;5023960;28;20014;-90
2022/06/28 00:21:47;;;;;;;11.90;3.67;;;25.70;99.10;;;;;;5047351;28;20041;-90
2022/06/28 00:24:13;;;;;;;15.68;3.67;;;25.70;99.20;;;;;;5046974;28;20357;-90
2022/06/28 00:26:39;;;;;;;15.25;4.05;;;25.60;99.30;;;;;;5040586;28;20033;-88
2022/06/28 00:29:04;;;;;;;14.38;3.55;;;25.60;99.50;;;;;;5033532;28;20450;-87
2022/06/28 00:31:30;;;;;;;14.80;3.67;;;25.50;99.30;;;;;;5047571;28;20100;-88
2022/06/28 00:33:56;;;;;;;13.63;3.47;;;25.50;99.50;;;;;;5048040;28;20041;-88
2022/06/28 00:36:22;;;;;;;16.05;4.07;;;25.50;99.60;;;;;;5041290;28;20155;-89
2022/06/28 00:38:47;;;;;;;13.90;4.00;;;25.40;99.50;;;;;;5034190;28;20025;-89
2022/06/28 00:41:13;;;;;;;9.95;3.20;;;25.40;99.60;;;;;;5041116;28;20139;-89
2022/06/28 00:43:39;;;;;;;12.50;3.70;;;25.40;99.40;;;;;;5032186;28;20017;-89
2022/06/28 00:46:07;;;;;;;14.25;3.63;;;25.50;99.40;;;;;;5041526;28;20033;-88
2022/06/28 00:48:34;;;;;;;18.48;3.53;;;25.50;99.40;;;;;;5035720;28;20499;-87
2022/06/28 00:51:00;;;;;;;19.02;4.05;;;25.50;99.40;;;;;;5039598;28;20506;-89
2022/06/28 00:53:26;;;;;;;12.52;3.53;;;25.60;99.10;;;;;;5035594;28;20021;-93
2022/06/28 00:55:52;;;;;;;13.25;3.47;;;25.60;99.10;;;;;;5052750;28;20036;-93
2022/06/28 00:58:18;;;;;;;17.08;4.03;;;25.60;99.10;;;;;;5055585;28;20040;-93
2022/06/28 01:00:46;;;;;;;17.30;3.60;;;25.60;99.00;;;;;;5038270;28;20112;-93
2022/06/28 01:03:14;;;;;;;23.80;4.20;;;25.70;99.20;;;;;;5036682;28;20024;-94
2022/06/28 01:05:44;;;;;;;14.23;3.75;;;25.60;99.00;;;;;;5045836;28;20021;-95
2022/06/28 01:08:11;;;;;;;15.60;4.60;;;25.60;99.10;;;;;;5036831;28;20052;-94
2022/06/28 01:10:38;;;;;;;12.73;4.05;;;25.60;99.10;;;;;;5049698;28;20431;-94
2022/06/28 01:13:04;;;;;;;14.63;3.38;;;25.60;99.30;;;;;;5035444;28;20038;-95
2022/06/28 01:15:33;;;;;;;17.98;4.00;;;25.50;99.40;;;;;;5039598;28;20069;-95
2022/06/28 01:18:01;;;;;;;11.70;3.90;;;25.50;99.30;;;;;;5036436;28;20031;-94
2022/06/28 01:20:27;;;;;;;16.30;4.13;;;25.60;99.40;;;;;;5052229;28;20043;-95
2022/06/28 01:22:54;;;;;;;13.35;4.10;;;25.60;99.40;;;;;;5037678;28;20025;-94
2022/06/28 01:25:21;;;;;;;19.60;3.92;;;25.50;99.50;;;;;;5038120;28;20520;-95
2022/06/28 01:27:48;;;;;;;15.18;3.88;;;25.50;99.50;;;;;;5035340;28;20018;-95
2022/06/28 01:30:13;;;;;;;11.32;3.90;;;25.50;99.70;;;;;;5043882;28;20253;-95
2022/06/28 01:32:40;;;;;;;16.15;3.97;;;25.50;99.60;;;;;;5054781;28;20487;-94
2022/06/28 01:35:07;;;;;;;11.30;4.00;;;25.50;99.70;;;;;;5047514;28;20044;-95
2022/06/28 01:37:34;;;;;;;18.45;4.15;;;25.40;99.70;;;;;;5056271;28;20072;-94
2022/06/28 01:40:00;;;;;;;25.52;4.28;;;25.40;99.60;;;;;;5047577;28;20384;-95
2022/06/28 01:42:30;;;;;;;16.90;3.72;;;25.50;99.70;;;;;;5056264;28;20128;-95
2022/06/28 01:44:57;;;;;;;12.50;3.75;;;25.40;99.90;;;;;;5043189;28;20029;-95
2022/06/28 01:47:25;;;;;;;16.30;4.07;;;25.30;99.80;;;;;;5052272;28;20039;-95
2022/06/28 01:49:51;;;;;;;12.15;3.67;;;25.40;99.90;;;;;;5051150;28;20104;-95
2022/06/28 01:52:17;;;;;;;13.85;3.25;;;25.40;99.90;;;;;;5042341;28;20049;-94
2022/06/28 01:54:43;;;;;;;14.45;3.63;;;25.30;99.90;;;;;;5043457;28;20025;-95
2022/06/28 01:57:09;;;;;;;20.48;4.30;;;25.30;99.90;;;;;;5036179;28;20572;-95
2022/06/28 01:59:37;;;;;;;19.77;4.15;;;25.20;99.90;;;;;;5043607;28;20028;-95
2022/06/28 02:02:03;;;;;;;9.27;3.70;;;25.20;99.90;;;;;;5056069;28;20025;-95
2022/06/28 02:04:30;;;;;;;15.70;3.65;;;25.30;99.90;;;;;;5055005;28;20073;-96
2022/06/28 02:06:57;;;;;;;15.95;3.85;;;25.20;99.90;;;;;;5047335;28;20049;-92
2022/06/28 02:09:23;;;;;;;19.90;4.65;;;25.20;99.90;;;;;;5049137;28;20067;-93
2022/06/28 02:11:50;;;;;;;18.65;4.28;;;25.20;99.90;;;;;;5049530;28;20017;-91
2022/06/28 02:14:16;;;;;;;15.57;4.28;;;25.20;99.90;;;;;;5052430;28;20460;-91
2022/06/28 02:16:42;;;;;;;16.55;3.10;;;25.20;99.90;;;;;;5035007;28;20064;-91
2022/06/28 02:19:08;;;;;;;20.35;4.32;;;25.30;99.90;;;;;;5037031;28;20020;-91
2022/06/28 02:21:42;;;;;;;13.70;4.13;;;25.20;99.90;;;;;;5053221;28;20029;-92
2022/06/28 02:24:09;;;;;;;13.73;4.18;;;25.30;99.90;;;;;;5051343;28;20379;-90
2022/06/28 02:26:35;;;;;;;13.02;3.40;;;25.20;99.90;;;;;;5044533;28;20496;-90
2022/06/28 02:29:04;;;;;;;17.20;4.32;;;25.20;99.90;;;;;;5034545;28;20112;-90
2022/06/28 02:31:30;;;;;;;16.08;3.85;;;25.20;99.90;;;;;;5044220;28;20104;-91
2022/06/28 02:33:56;;;;;;;12.93;4.10;;;25.20;99.90;;;;;;5037695;28;20139;-91
2022/06/28 02:41:43;;;;;;;11.57;3.85;;;25.10;99.90;;;;;;5046479;28;20025;-92
2022/06/28 02:44:09;;;;;;;14.73;4.45;;;25.10;99.90;;;;;;5047068;28;20021;-93
2022/06/28 02:46:35;;;;;;;21.17;4.28;;;25.10;99.90;;;;;;5034246;28;20515;-93
2022/06/28 02:49:01;;;;;;;17.63;3.53;;;25.00;99.90;;;;;;5038239;28;20044;-94
2022/06/28 02:51:27;;;;;;;9.93;3.80;;;25.00;99.90;;;;;;5053005;28;20018;-94
2022/06/28 02:53:53;;;;;;;13.85;3.65;;;25.10;99.90;;;;;;5049388;28;20022;-93
2022/06/28 02:56:20;;;;;;;12.52;3.47;;;25.10;99.90;;;;;;5049180;28;20021;-92
2022/06/28 02:58:46;;;;;;;10.82;3.97;;;25.10;99.90;;;;;;5051953;28;20123;-94
2022/06/28 03:01:12;;;;;;;15.85;4.22;;;25.00;99.90;;;;;;5038696;28;20108;-92
2022/06/28 03:03:40;;;;;;;14.75;4.32;;;25.00;99.90;;;;;;5033348;28;20037;-93
2022/06/28 03:06:06;;;;;;;17.02;4.45;;;25.00;99.90;;;;;;5034891;28;20029;-92
2022/06/28 03:08:32;;;;;;;9.48;3.72;;;25.00;99.90;;;;;;5033262;28;20025;-94
2022/06/28 03:10:58;;;;;;;17.17;3.75;;;24.90;99.90;;;;;;5052347;28;20103;-94
2022/06/28 03:13:25;;;;;;;15.32;4.75;;;24.90;99.90;;;;;;5036544;28;20480;-94
2022/06/28 03:15:50;;;;;;;25.85;4.68;;;25.00;99.90;;;;;;5036822;28;20049;-93
2022/06/28 03:18:16;;;;;;;17.95;4.22;;;24.90;99.90;;;;;;5033794;28;20025;-95
2022/06/28 03:20:42;;;;;;;13.90;3.70;;;25.00;99.90;;;;;;5041350;28;20025;-94
2022/06/28 03:23:08;;;;;;;20.38;3.70;;;25.00;99.90;;;;;;5034198;28;20075;-93
2022/06/28 03:25:36;;;;;;;17.55;3.88;;;25.00;99.90;;;;;;5045235;28;20124;-92
2022/06/28 03:28:04;;;;;;;15.85;4.03;;;25.00;99.90;;;;;;5014406;28;20481;-95
2022/06/28 03:30:33;;;;;;;13.02;4.00;;;25.00;99.90;;;;;;5046297;28;20033;-95
2022/06/28 03:32:58;;;;;;;16.73;4.78;;;25.00;99.90;;;;;;5053928;28;20056;-92
2022/06/28 03:35:25;;;;;;;16.80;4.25;;;25.00;99.90;;;;;;5039349;28;20073;-95
2022/06/28 03:37:50;;;;;;;19.40;3.97;;;25.00;99.90;;;;;;5034062;28;20030;-94
2022/06/28 03:40:19;;;;;;;17.48;3.53;;;25.00;99.90;;;;;;5042248;28;20029;-94
2022/06/28 03:42:45;;;;;;;13.25;3.42;;;25.00;99.90;;;;;;5053494;28;20032;-93
2022/06/28 03:45:11;;;;;;;19.02;4.18;;;25.00;99.90;;;;;;5044445;28;20025;-94
2022/06/28 03:47:37;;;;;;;29.30;4.90;;;25.10;99.90;;;;;;5035047;28;20025;-93
2022/06/28 03:50:03;;;;;;;21.95;4.15;;;25.00;99.90;;;;;;5034381;28;20034;-88
2022/06/28 03:52:29;;;;;;;14.85;3.95;;;25.10;99.90;;;;;;5039817;28;20055;-88
2022/06/28 03:54:58;;;;;;;20.92;4.50;;;25.10;99.90;;;;;;5037067;28;20025;-89
2022/06/28 03:57:27;;;;;;;13.27;3.53;;;25.10;99.90;;;;;;5033279;28;20033;-88
2022/06/28 03:59:56;;;;;;;17.63;3.90;;;25.20;99.90;;;;;;5038197;28;20033;-89
2022/06/28 04:02:22;;;;;;;19.73;3.97;;;25.30;99.90;;;;;;5048642;28;20043;-89
2022/06/28 04:04:48;;;;;;;27.27;4.97;;;25.30;99.90;;;;;;5036772;28;20114;-88
2022/06/28 04:07:14;;;;;;;12.98;3.50;;;25.40;99.90;;;;;;5038140;28;20076;-91
2022/06/28 04:09:40;;;;;;;18.88;3.80;;;25.50;99.90;;;;;;5036564;28;20052;-89
2022/06/28 04:12:06;;;;;;;26.08;4.00;;;25.50;99.90;;;;;;5035183;28;20029;-90
2022/06/28 04:14:32;;;;;;;15.52;3.90;;;25.50;99.90;;;;;;5034116;28;20427;-90
2022/06/28 04:16:57;;;;;;;12.95;3.83;;;25.50;99.90;;;;;;5048451;28;20021;-90
2022/06/28 04:33:19;;;;;;;13.40;4.10;;;25.70;99.90;;;;;;5048598;28;20036;-89
2022/06/28 04:35:45;;;;;;;17.70;3.60;;;25.80;99.90;;;;;;5034895;28;20125;-90
2022/06/28 04:38:11;;;;;;;17.70;4.65;;;25.80;99.90;;;;;;5017925;28;20097;-89
2022/06/28 04:40:37;;;;;;;17.88;3.78;;;25.90;99.90;;;;;;5042458;28;20115;-90
2022/06/28 04:43:03;;;;;;;18.83;4.13;;;25.90;99.90;;;;;;5031268;28;20100;-90
2022/06/28 04:45:29;;;;;;;23.20;4.68;;;26.00;99.90;;;;;;5034303;28;20025;-91
2022/06/28 04:47:55;;;;;;;18.75;4.13;;;26.10;99.90;;;;;;5030327;28;20059;-90
2022/06/28 04:50:21;;;;;;;18.95;4.13;;;26.20;99.90;;;;;;5033577;28;20068;-87
2022/06/28 04:52:47;;;;;;;12.85;3.88;;;26.30;99.90;;;;;;5032321;28;20032;-89
2022/06/28 04:55:12;;;;;;;15.00;3.63;;;26.40;99.90;;;;;;5034438;28;20073;-91
2022/06/28 04:57:38;;;;;;;21.42;4.07;;;26.40;99.90;;;;;;5032668;28;20412;-89
2022/06/28 05:00:04;;;;;;;16.00;4.07;;;26.60;99.90;;;;;;5037151;28;20028;-89
2022/06/28 05:02:30;;;;;;;14.57;3.88;;;26.60;99.80;;;;;;5032913;28;20168;-89
2022/06/28 05:04:56;;;;;;;13.85;4.22;;;26.70;99.50;;;;;;5035700;28;20107;-89
2022/06/28 05:07:22;;;;;;;17.85;4.68;;;26.80;99.50;;;;;;5033895;28;20037;-96
2022/06/28 05:09:47;;;;;;;24.02;4.18;;;26.90;99.30;;;;;;5041482;28;20036;-94
2022/06/28 05:12:13;;;;;;;14.02;4.32;;;26.90;99.40;;;;;;5034263;28;20049;-92
2022/06/28 05:14:39;;;;;;;16.75;3.83;;;27.10;99.20;;;;;;5036782;28;20557;-96
2022/06/28 05:17:05;;;;;;;12.35;3.90;;;27.10;99.20;;;;;;5043942;28;20028;-88
2022/06/28 05:19:33;;;;;;;18.67;4.15;;;27.20;99.10;;;;;;5039717;28;20036;-92
2022/06/28 05:21:59;;;;;;;21.23;3.92;;;27.20;98.90;;;;;;5011521;28;20452;-96
2022/06/28 05:24:25;;;;;;;16.17;4.10;;;27.30;99.10;;;;;;5023076;28;20025;-91
2022/06/28 05:26:51;;;;;;;9.88;3.85;;;27.30;99.10;;;;;;5048423;28;20025;-93
2022/06/28 05:29:17;;;;;;;15.77;4.25;;;27.30;99.00;;;;;;5042006;28;20025;-95
2022/06/28 05:31:43;;;;;;;13.10;3.50;;;27.50;99.10;;;;;;5036138;28;20025;-95
2022/06/28 05:34:08;;;;;;;13.73;4.47;;;27.50;99.00;;;;;;5029717;28;20991;-91
2022/06/28 05:36:37;;;;;;;14.32;3.70;;;27.60;98.90;;;;;;5040914;28;20029;-92
2022/06/28 05:39:03;;;;;;;12.23;3.97;;;27.70;98.60;;;;;;5037339;28;20024;-91
2022/06/28 05:41:31;;;;;;;15.05;3.83;;;27.80;98.60;;;;;;5039927;28;20021;-91
2022/06/28 05:43:56;;;;;;;18.75;4.05;;;27.90;98.70;;;;;;5048186;28;20032;-90
2022/06/28 05:46:22;;;;;;;27.02;4.55;;;28.00;98.60;;;;;;5049194;28;20029;-89
2022/06/28 05:48:48;;;;;;;15.25;4.30;;;28.10;98.50;;;;;;5045763;28;20013;-89
2022/06/28 05:51:14;;;;;;;32.67;5.63;;;28.20;98.40;;;;;;5047489;28;20501;-89
2022/06/28 05:53:40;;;;;;;13.45;3.83;;;28.30;98.20;;;;;;5049701;28;20100;-91
2022/06/28 05:56:05;;;;;;;20.67;4.13;;;28.40;98.20;;;;;;5037841;28;20041;-89
2022/06/28 05:58:31;;;;;;;15.18;4.45;;;28.50;97.80;;;;;;5033776;28;20048;-87
2022/06/28 06:00:57;;;;;;;14.68;4.13;;;28.60;97.80;;;;;;5040906;28;20056;-91
2022/06/28 06:03:22;;;;;;;20.27;3.85;;;28.70;97.60;;;;;;5031561;28;20044;-93
2022/06/28 06:05:50;;;;;;;19.88;4.20;;;28.90;97.40;;;;;;5074570;22;20010;-89
2022/06/28 06:10:43;;;;;;;16.48;3.85;;;29.20;97.10;;;;;;5034182;28;20123;-96
2022/06/28 06:13:09;;;;;;;17.60;4.50;;;29.20;97.00;;;;;;5034731;28;20026;-95
2022/06/28 06:15:34;;;;;;;19.95;4.50;;;29.20;97.00;;;;;;5033668;28;20109;-95
2022/06/28 06:18:00;;;;;;;18.13;4.85;;;29.30;97.00;;;;;;5031764;28;20057;-96
2022/06/28 06:20:26;;;;;;;34.97;5.35;;;29.30;96.80;;;;;;5068289;22;20068;-96
2022/06/28 06:22:52;;;;;;;21.38;4.78;;;29.40;97.10;;;;;;5073900;28;20025;-92
2022/06/28 06:25:18;;;;;;;33.60;5.53;;;29.50;97.10;;;;;;5055417;28;20059;-90
2022/06/28 06:27:44;;;;;;;35.22;5.88;;;29.60;96.60;;;;;;5052652;28;20021;-91
2022/06/28 06:30:10;;;;;;;29.52;5.43;;;29.70;96.50;;;;;;5056451;28;20113;-89
2022/06/28 06:32:36;;;;;;;23.98;4.85;;;29.80;96.50;;;;;;5051709;28;20130;-85
2022/06/28 06:35:03;;;;;;;18.05;4.25;;;29.90;96.40;;;;;;5058311;28;20028;-91
2022/06/28 06:37:29;;;;;;;28.35;4.20;;;30.00;96.30;;;;;;5053356;28;20070;-88
2022/06/28 06:39:54;;;;;;;56.00;6.50;;;30.00;96.60;;;;;;5057627;28;20107;-90
2022/06/28 06:42:20;;;;;;;26.05;5.07;;;30.10;96.70;;;;;;5067195;28;20434;-90
2022/06/28 06:44:46;;;;;;;41.42;6.00;;;30.10;96.40;;;;;;5065574;28;20475;-89
2022/06/28 06:47:11;;;;;;;39.53;5.88;;;30.30;96.40;;;;;;5053985;28;20014;-90
2022/06/28 06:49:37;;;;;;;42.60;7.57;;;30.30;96.20;;;;;;5059149;28;20483;-86
2022/06/28 06:52:03;;;;;;;28.75;4.80;;;30.40;96.00;;;;;;5055679;28;20020;-91
2022/06/28 06:54:29;;;;;;;23.55;5.00;;;30.50;96.20;;;;;;5056299;28;20028;-90
2022/06/28 06:56:54;;;;;;;28.52;5.05;;;30.60;95.70;;;;;;5058870;28;20484;-91
2022/06/28 06:59:20;;;;;;;20.08;4.95;;;30.70;95.80;;;;;;5052495;28;20028;-91
2022/06/28 07:01:46;;;;;;;27.85;4.63;;;30.80;95.70;;;;;;5049662;28;20021;-91
2022/06/28 07:04:13;;;;;;;19.58;4.85;;;30.90;95.50;;;;;;5052176;28;20022;-91
2022/06/28 07:06:39;;;;;;;22.60;4.90;;;31.10;95.10;;;;;;5054503;28;20044;-90
2022/06/28 07:09:05;;;;;;;15.20;4.22;;;31.20;95.60;;;;;;5054900;28;20013;-96
2022/06/28 07:11:31;;;;;;;31.67;4.85;;;31.30;95.20;;;;;;5057405;28;20484;-93
2022/06/28 07:14:00;;;;;;;26.35;4.88;;;31.50;94.90;;;;;;5055002;28;20013;-96
2022/06/28 07:16:26;;;;;;;18.15;4.22;;;31.60;94.20;;;;;;5063486;28;20017;-96
2022/06/28 07:18:52;;;;;;;19.40;4.78;;;31.70;94.50;;;;;;5057733;28;20017;-96
2022/06/28 07:21:17;;;;;;;19.35;4.50;;;31.80;94.40;;;;;;5062256;28;20041;-96
2022/06/28 07:23:43;;;;;;;39.47;5.57;;;31.80;94.70;;;;;;5061928;28;20111;-95
2022/06/28 07:26:09;;;;;;;17.00;4.55;;;32.00;94.30;;;;;;5055984;28;20028;-95
2022/06/28 07:28:36;;;;;;;21.77;4.72;;;32.10;93.50;;;;;;5053291;28;20032;-91
2022/06/28 07:31:01;;;;;;;16.75;3.63;;;32.30;92.90;;;;;;5058092;28;20028;-91
2022/06/28 07:33:27;;;;;;;28.77;4.88;;;32.40;93.00;;;;;;5050874;28;20514;-94
2022/06/28 07:35:53;;;;;;;35.92;4.80;;;32.50;92.40;;;;;;5061690;28;20051;-92
2022/06/28 07:38:18;;;;;;;18.45;4.55;;;32.60;92.40;;;;;;5050167;28;20387;-96
2022/06/28 07:40:44;;;;;;;24.10;4.10;;;32.60;92.10;;;;;;5053014;28;20033;-93
2022/06/28 07:43:10;;;;;;;21.25;4.72;;;32.70;92.00;;;;;;5051879;28;20017;-93
2022/06/28 07:45:36;;;;;;;18.38;4.60;;;32.80;91.90;;;;;;5055335;28;20075;-92
2022/06/28 07:48:07;;;;;;;27.13;5.50;;;32.90;91.60;;;;;;5027838;28;20018;-91
2022/06/28 07:53:18;;;;;;;17.95;4.53;;;33.00;91.30;;;;;;5051560;28;20039;-88
2022/06/28 07:55:44;;;;;;;20.80;5.20;;;33.10;91.20;;;;;;5054391;28;20053;-94
2022/06/28 07:58:10;;;;;;;20.35;4.57;;;33.10;91.20;;;;;;5053530;28;20063;-94
2022/06/28 08:00:35;;;;;;;19.70;4.78;;;33.20;91.10;;;;;;5056174;28;20447;-93
2022/06/28 08:03:02;;;;;;;15.00;4.47;;;33.30;91.00;;;;;;5050217;28;20052;-93
2022/06/28 08:05:28;;;;;;;18.58;4.75;;;33.40;91.30;;;;;;5053018;28;20060;-94
2022/06/28 08:07:53;;;;;;;20.17;4.60;;;33.50;91.10;;;;;;5056509;28;20452;-93
2022/06/28 08:10:19;;;;;;;18.90;4.25;;;33.70;91.00;;;;;;5053626;28;20025;-93
2022/06/28 08:12:45;;;;;;;16.13;4.40;;;33.90;89.40;;;;;;5051212;28;20028;-95
2022/06/28 08:15:12;;;;;;;20.75;4.80;;;33.90;89.50;;;;;;5061926;28;20041;-93
2022/06/28 08:17:39;;;;;;;26.10;4.95;;;34.00;89.50;;;;;;5074513;23;20385;-93
2022/06/28 08:20:06;;;;;;;15.30;5.20;;;34.10;90.10;;;;;;5047776;28;20025;-96
2022/06/28 08:22:34;;;;;;;15.40;5.00;;;34.20;89.50;;;;;;5051957;28;20037;-93
2022/06/28 08:24:59;;;;;;;22.40;4.88;;;34.30;89.50;;;;;;5055915;28;20380;-96
2022/06/28 08:27:25;;;;;;;22.90;4.90;;;34.40;90.10;;;;;;5061242;28;20013;-96
2022/06/28 08:29:51;;;;;;;21.75;4.57;;;34.50;89.00;;;;;;5048202;28;20029;-95
2022/06/28 08:32:20;;;;;;;21.83;5.07;;;34.60;89.90;;;;;;5043254;28;20021;-93
2022/06/28 08:34:47;;;;;;;20.95;5.13;;;34.70;90.00;;;;;;5047256;28;20040;-89
2022/06/28 08:37:13;;;;;;;16.25;4.65;;;34.80;88.80;;;;;;5050079;28;20017;-92
2022/06/28 08:39:38;;;;;;;16.95;4.88;;;34.80;90.10;;;;;;5046019;28;20158;-85
2022/06/28 08:42:05;;;;;;;19.40;4.75;;;34.90;89.40;;;;;;5049074;28;20474;-89
2022/06/28 08:44:35;;;;;;;25.15;5.35;;;35.00;88.20;;;;;;5046463;28;20400;-89
2022/06/28 08:47:03;;;;;;;21.58;4.85;;;35.00;92.30;;;;;;5057059;28;20025;-90
2022/06/28 08:49:55;;;;;;;25.42;5.72;;;34.30;95.20;;;;;;5047524;28;20049;-88
2022/06/28 08:52:22;;;;;;;23.90;5.40;;;33.00;96.30;;;;;;5048334;28;20749;-88
2022/06/28 08:54:49;;;;;;;21.27;5.50;;;32.20;96.90;;;;;;5046087;28;20088;-88
2022/06/28 08:57:17;;;;;;;19.80;5.00;;;31.90;97.40;;;;;;5046976;28;20025;-86
2022/06/28 08:59:44;;;;;;;22.08;5.07;;;31.80;99.40;;;;;;5046198;28;20083;-93
2022/06/28 09:02:14;;;;;;;17.30;5.18;;;31.60;99.90;;;;;;5045224;28;20096;-87
2022/06/28 09:04:44;;;;;;;24.10;5.32;;;31.20;99.90;;;;;;5046537;28;20029;-91
2022/06/28 09:07:09;;;;;;;25.80;5.05;;;31.10;99.90;;;;;;5029806;28;20022;-91
2022/06/28 09:09:35;;;;;;;18.95;4.85;;;31.00;99.90;;;;;;5028448;28;20037;-90
2022/06/28 09:12:02;;;;;;;20.75;5.15;;;30.90;99.90;;;;;;5032855;28;20024;-89
2022/06/28 09:14:30;;;;;;;21.77;5.60;;;31.00;99.90;;;;;;5031852;28;20037;-89
2022/06/28 09:16:58;;;;;;;22.98;5.28;;;30.80;99.90;;;;;;5034970;28;20041;-90
2022/06/28 09:19:41;;;;;;;24.25;4.95;;;30.60;99.90;;;;;;5031509;28;20514;-90
2022/06/28 09:22:07;;;;;;;24.70;5.22;;;30.60;99.90;;;;;;5027982;28;20117;-87
2022/06/28 09:24:34;;;;;;;25.27;5.20;;;30.60;99.90;;;;;;5030419;28;20113;-88
2022/06/28 09:27:03;;;;;;;25.75;5.10;;;30.50;99.90;;;;;;5033178;28;20051;-89
2022/06/28 09:29:44;;;;;;;21.83;5.07;;;30.50;99.90;;;;;;5027317;28;20409;-85
2022/06/28 09:32:10;;;;;;;21.17;5.57;;;30.50;99.90;;;;;;5032904;28;20021;-88
2022/06/28 09:34:40;;;;;;;25.27;5.63;;;30.40;99.90;;;;;;5030478;28;20115;-90
2022/06/28 09:37:07;;;;;;;26.30;6.22;;;30.60;99.90;;;;;;5031725;28;20571;-85
2022/06/28 09:39:32;;;;;;;21.17;5.22;;;30.50;99.90;;;;;;5031324;28;20657;-86
2022/06/28 09:42:00;;;;;;;23.70;5.60;;;30.40;99.90;;;;;;5038802;28;20040;-86
2022/06/28 09:44:28;;;;;;;24.58;5.43;;;30.50;99.90;;;;;;5030917;28;20025;-86
2022/06/28 09:46:57;;;;;;;22.95;5.47;;;30.70;99.90;;;;;;5032073;28;20503;-86
2022/06/28 09:49:28;;;;;;;18.10;4.80;;;30.90;99.30;;;;;;5035893;28;20021;-85
2022/06/28 09:51:58;;;;;;;17.48;5.47;;;31.10;99.00;;;;;;5021969;28;20034;-86
2022/06/28 09:54:27;;;;;;;28.95;5.25;;;31.10;99.90;;;;;;5026050;28;20179;-87
2022/06/28 09:56:55;;;;;;;13.60;4.47;;;31.10;99.90;;;;;;5023958;28;20026;-88
2022/06/28 09:59:25;;;;;;;22.67;5.03;;;31.10;99.50;;;;;;5016997;28;20061;-86
2022/06/28 10:01:55;;;;;;;22.17;5.70;;;31.20;99.90;;;;;;5020234;28;20112;-84
2022/06/28 10:04:26;;;;;;;18.73;5.85;;;31.10;99.90;;;;;;5016514;28;20117;-86
2022/06/28 10:06:53;;;;;;;16.30;5.07;;;31.10;99.90;;;;;;5016714;28;20018;-87
2022/06/28 10:09:20;;;;;;;23.27;5.75;;;30.90;99.90;;;;;;5016975;28;20028;-87
2022/06/28 10:17:44;;;;;;;16.58;4.65;;;30.60;98.80;;;;;;5013416;28;20103;-87
2022/06/28 10:20:12;;;;;;;23.13;4.30;;;30.90;96.90;;;;;;5015829;28;20029;-87
2022/06/28 10:22:38;;;;;;;14.38;4.50;;;31.10;98.00;;;;;;5012227;28;20117;-87
2022/06/28 10:25:21;;;;;;;16.08;4.43;;;31.30;96.90;;;;;;5016285;28;20117;-87
2022/06/28 10:27:50;;;;;;;18.73;4.68;;;31.30;99.90;;;;;;5012330;28;20037;-86
2022/06/28 10:30:29;;;;;;;17.65;4.88;;;31.00;99.90;;;;;;5022632;28;20041;-87
2022/06/28 10:33:09;;;;;;;17.63;4.43;;;30.80;99.90;;;;;;5032146;28;20100;-87
2022/06/28 10:35:35;;;;;;;26.25;4.95;;;30.60;99.10;;;;;;5020022;28;20073;-87
2022/06/28 10:38:09;;;;;;;10.32;4.00;;;30.80;98.50;;;;;;5033062;28;20124;-85
2022/06/28 10:40:42;;;;;;;17.88;4.10;;;31.00;96.40;;;;;;5025254;28;20056;-89
2022/06/28 10:43:08;;;;;;;17.58;4.25;;;31.10;93.80;;;;;;5028550;28;20372;-88
2022/06/28 10:46:09;;;;;;;22.50;4.13;;;31.30;93.60;;;;;;5017588;28;20057;-87
2022/06/28 10:49:05;;;;;;;19.58;4.30;;;31.50;93.80;;;;;;5013407;28;20500;-87
2022/06/28 10:51:32;;;;;;;16.73;3.70;;;31.50;92.90;;;;;;4999807;28;20041;-88
2022/06/28 10:54:07;;;;;;;18.75;4.32;;;31.50;93.90;;;;;;5015275;28;20511;-85
2022/06/28 10:56:38;;;;;;;14.38;3.47;;;31.50;93.70;;;;;;5016095;28;20666;-85
2022/06/28 10:59:11;;;;;;;19.67;4.30;;;31.60;94.30;;;;;;5015695;28;20032;-85
2022/06/28 11:01:39;;;;;;;15.02;4.03;;;31.70;94.30;;;;;;5015791;28;20033;-87
2022/06/28 11:04:12;;;;;;;17.15;3.83;;;31.60;94.70;;;;;;5015982;28;20026;-87
2022/06/28 11:06:40;;;;;;;15.68;3.75;;;31.50;95.80;;;;;;5016484;28;20022;-87
2022/06/28 11:09:23;;;;;;;15.60;4.03;;;31.70;94.50;;;;;;5028875;28;20022;-87
2022/06/28 11:12:04;;;;;;;;;;;32.10;93.30;;;;;;5021538;28;20075;-84
2022/06/28 11:14:32;;;;;;;10.73;3.40;;;32.30;93.10;;;;;;5016463;28;19917;-86
2022/06/28 11:16:59;;;;;;;15.77;3.58;;;32.50;92.60;;;;;;5014001;28;20057;-85
2022/06/28 11:19:25;;;;;;;17.50;3.72;;;32.40;91.80;;;;;;5015074;28;20053;-84
2022/06/28 11:21:55;;;;;;;18.40;4.63;;;32.40;92.20;;;;;;5014877;28;20504;-85
2022/06/28 11:24:24;;;;;;;21.17;4.07;;;32.70;91.60;;;;;;5015604;28;20235;-86
2022/06/28 11:29:34;;;;;;;14.45;3.72;;;32.80;91.70;;;;;;5016308;28;20545;-83
2022/06/28 11:32:00;;;;;;;15.77;3.78;;;32.70;91.10;;;;;;5029464;28;20112;-87
2022/06/28 11:34:26;;;;;;;17.77;3.45;;;32.50;92.60;;;;;;5026413;28;20137;-84
2022/06/28 11:36:55;;;;;;;16.33;3.20;;;32.30;93.10;;;;;;5023601;28;20499;-81
2022/06/28 11:39:23;;;;;;;19.70;4.30;;;32.40;93.90;;;;;;5025506;28;20121;-85
2022/06/28 11:41:53;;;;;;;18.80;3.85;;;32.80;95.80;;;;;;5020662;28;20052;-83
2022/06/28 11:44:21;;;;;;;15.00;3.20;;;33.00;96.10;;;;;;5015127;28;20017;-86
2022/06/28 11:46:48;;;;;;;14.88;4.60;;;33.10;96.10;;;;;;5026955;28;20030;-84
2022/06/28 11:49:34;;;;;;;17.40;3.35;;;33.30;94.40;;;;;;5026714;28;20025;-85
2022/06/28 11:52:00;;;;;;;15.77;3.40;;;33.20;90.80;;;;;;5023461;28;20025;-86
2022/06/28 11:54:26;;;;;;;18.63;4.05;;;32.80;92.50;;;;;;5028259;28;20029;-87
2022/06/28 11:56:53;;;;;;;17.33;4.35;;;32.90;93.30;;;;;;5027688;28;20036;-81
2022/06/28 11:59:20;;;;;;;17.83;3.78;;;33.00;91.20;;;;;;5026042;28;20020;-88
2022/06/28 12:01:45;;;;;;;14.93;4.38;;;33.30;91.90;;;;;;5014756;28;20464;-83
2022/06/28 12:04:20;;;;;;;18.55;3.92;;;33.50;91.20;;;;;;5014632;28;20049;-82
2022/06/28 12:06:45;;;;;;;20.55;3.97;;;34.30;91.00;;;;;;5016567;28;20026;-85
2022/06/28 12:09:14;;;;;;;26.85;4.35;;;36.10;90.40;;;;;;5026155;28;20024;-86
2022/06/28 12:11:40;;;;;;;17.05;4.07;;;37.20;85.90;;;;;;5020912;28;20563;-86
2022/06/28 12:14:17;;;;;;;14.30;3.40;;;38.00;85.00;;;;;;5014837;28;20114;-85
2022/06/28 12:16:56;;;;;;;23.05;4.05;;;37.50;84.60;;;;;;5014684;28;20195;-88
2022/06/28 12:19:26;;;;;;;19.15;4.07;;;37.40;87.30;;;;;;5014798;28;20480;-86
2022/06/28 12:22:05;;;;;;;22.90;4.10;;;36.80;87.00;;;;;;5028730;28;20030;-84
2022/06/28 12:24:54;;;;;;;16.73;4.22;;;36.50;87.60;;;;;;5024551;28;20040;-86
2022/06/28 12:27:22;;;;;;;15.77;4.43;;;36.80;84.00;;;;;;5011824;28;20149;-84
2022/06/28 12:29:51;;;;;;;19.17;4.88;;;36.40;83.80;;;;;;5014425;28;20028;-83
2022/06/28 12:32:18;;;;;;;19.67;3.75;;;36.10;83.40;;;;;;5012798;28;20033;-84
2022/06/28 12:34:44;;;;;;;20.15;4.53;;;35.10;87.40;;;;;;5015866;28;20036;-83
2022/06/28 12:37:11;;;;;;;14.77;4.22;;;34.60;90.00;;;;;;5016570;28;20037;-83
2022/06/28 12:39:37;;;;;;;16.05;4.10;;;33.80;92.40;;;;;;5023382;28;20018;-82
2022/06/28 12:42:04;;;;;;;30.65;4.75;;;33.20;93.70;;;;;;5019369;28;20038;-84
2022/06/28 12:44:30;;;;;;;18.80;4.28;;;32.70;95.40;;;;;;5019313;28;20504;-84
2022/06/28 12:46:57;;;;;;;21.92;4.43;;;32.20;96.90;;;;;;5033162;28;20031;-83
2022/06/28 12:49:23;;;;;;;19.88;4.22;;;32.00;98.40;;;;;;5029346;28;20029;-83
2022/06/28 12:51:49;;;;;;;18.95;4.45;;;32.30;98.70;;;;;;5027954;28;20037;-85
2022/06/28 12:54:15;;;;;;;18.63;4.32;;;32.50;99.30;;;;;;5029243;28;20026;-86
2022/06/28 12:56:41;;;;;;;11.27;3.83;;;32.60;99.50;;;;;;5031796;28;20116;-85
2022/06/28 12:59:07;;;;;;;17.15;4.50;;;32.90;99.60;;;;;;5031125;28;20105;-85
2022/06/28 13:01:33;;;;;;;16.10;3.80;;;32.70;99.40;;;;;;5017809;28;20037;-84
2022/06/28 13:03:59;;;;;;;14.10;3.95;;;32.40;99.90;;;;;;5015766;28;20401;-85
2022/06/28 13:06:25;;;;;;;18.85;4.20;;;32.40;99.90;;;;;;5031166;28;20561;-86
2022/06/28 13:08:51;;;;;;;18.55;4.35;;;33.50;98.90;;;;;;5030745;28;20478;-85
2022/06/28 13:11:20;;;;;;;27.17;4.50;;;34.10;97.40;;;;;;5027564;28;20026;-85
2022/06/28 13:13:45;;;;;;;19.40;3.72;;;33.70;97.10;;;;;;5016747;28;20025;-85
2022/06/28 13:16:11;;;;;;;18.23;4.50;;;33.30;97.70;;;;;;5019167;28;20048;-84